createdAt,value
2022-12-06T00:01:14.102Z,93.03
2022-12-06T00:03:42.759Z,92.79
2022-12-06T00:06:11.648Z,92.37
2022-12-06T00:08:39.471Z,92.56
2022-12-06T00:11:08.902Z,92.55
2022-12-06T00:13:36.829Z,92.36
2022-12-06T00:16:06.393Z,91.50
2022-12-06T00:18:34.920Z,91.61
2022-12-06T00:21:13.342Z,91.75
2022-12-06T00:23:42.688Z,91.73
2022-12-06T00:26:10.420Z,92.32
2022-12-06T00:28:38.753Z,92.31
2022-12-06T00:31:11.204Z,92.18
2022-12-06T00:33:38.871Z,92.03
2022-12-06T00:36:07.676Z,92.09
2022-12-06T00:38:36.583Z,92.03
2022-12-06T00:41:12.019Z,92.08
2022-12-06T00:43:40.044Z,92.10
2022-12-06T00:46:08.904Z,91.79
2022-12-06T00:48:36.726Z,91.59
2022-12-06T00:51:04.513Z,91.59
2022-12-06T00:53:32.288Z,91.35
2022-12-06T00:56:00.160Z,91.39
2022-12-06T00:58:28.043Z,91.69
2022-12-06T01:00:56.022Z,91.44
2022-12-06T01:03:23.883Z,91.49
2022-12-06T01:05:52.077Z,91.52
2022-12-06T01:08:20.714Z,91.51
2022-12-06T01:10:53.275Z,91.61
2022-12-06T01:13:21.095Z,91.75
2022-12-06T01:15:48.845Z,91.76
2022-12-06T01:18:16.904Z,91.75
2022-12-06T01:20:44.662Z,91.64
2022-12-06T01:23:12.620Z,91.39
2022-12-06T01:25:48.839Z,91.60
2022-12-06T01:28:16.693Z,91.41
2022-12-06T01:30:44.537Z,91.47
2022-12-06T01:33:12.896Z,91.23
2022-12-06T01:35:41.466Z,91.26
2022-12-06T01:38:09.851Z,91.15
2022-12-06T01:40:39.246Z,91.22
2022-12-06T01:43:26.902Z,91.03
2022-12-06T01:45:54.862Z,91.19
2022-12-06T01:48:24.342Z,91.51
2022-12-06T01:50:52.663Z,91.55
2022-12-06T01:53:25.398Z,91.41
2022-12-06T01:55:53.667Z,91.32
2022-12-06T01:58:27.550Z,91.34
2022-12-06T02:00:55.408Z,91.54
2022-12-06T02:03:25.815Z,91.69
2022-12-06T02:05:53.640Z,91.81
2022-12-06T02:08:21.659Z,91.70
2022-12-06T02:10:49.487Z,91.30
2022-12-06T02:13:17.348Z,91.14
2022-12-06T02:15:47.365Z,90.93
2022-12-06T02:18:19.650Z,91.07
2022-12-06T02:20:52.298Z,91.06
2022-12-06T02:23:22.860Z,91.49
2022-12-06T02:26:09.413Z,91.24
2022-12-06T02:28:40.002Z,91.13
2022-12-06T02:31:12.278Z,91.70
2022-12-06T02:33:40.064Z,91.72
2022-12-06T02:36:12.560Z,91.74
2022-12-06T02:38:44.458Z,91.77
2022-12-06T02:41:26.961Z,91.82
2022-12-06T02:44:03.831Z,91.58
2022-12-06T02:46:34.180Z,91.51
2022-12-06T02:49:03.640Z,91.45
2022-12-06T02:51:32.698Z,91.39
2022-12-06T02:54:02.450Z,91.10
2022-12-06T02:56:32.986Z,91.01
2022-12-06T02:59:01.338Z,91.06
2022-12-06T03:01:31.529Z,91.38
2022-12-06T03:04:02.363Z,91.46
2022-12-06T03:06:36.029Z,91.34
2022-12-06T03:09:13.739Z,91.21
2022-12-06T03:11:53.642Z,90.90
2022-12-06T03:14:23.451Z,91.10
2022-12-06T03:17:06.534Z,90.85
2022-12-06T03:19:36.402Z,90.60
2022-12-06T03:22:06.749Z,90.77
2022-12-06T03:24:36.527Z,90.85
2022-12-06T03:27:06.325Z,90.98
2022-12-06T03:29:37.450Z,90.99
2022-12-06T03:32:06.795Z,90.88
2022-12-06T03:34:39.277Z,90.64
2022-12-06T03:37:09.193Z,90.52
2022-12-06T03:39:41.185Z,90.73
2022-12-06T03:42:09.829Z,90.59
2022-12-06T03:44:37.743Z,90.83
2022-12-06T03:47:11.671Z,90.50
2022-12-06T03:49:47.603Z,90.39
2022-12-06T03:52:15.376Z,90.72
2022-12-06T03:54:43.083Z,90.68
2022-12-06T03:57:10.883Z,90.59
2022-12-06T03:59:38.550Z,90.58
2022-12-06T04:02:06.378Z,90.91
2022-12-06T04:04:34.211Z,90.96
2022-12-06T04:07:01.916Z,91.20
2022-12-06T04:09:48.262Z,90.93
2022-12-06T04:12:34.690Z,90.84
2022-12-06T04:15:02.562Z,91.35
2022-12-06T04:17:48.731Z,91.16
2022-12-06T04:20:16.769Z,90.95
2022-12-06T04:23:03.172Z,90.60
2022-12-06T04:25:32.325Z,90.61
2022-12-06T04:28:19.159Z,90.90
2022-12-06T04:31:05.495Z,91.03
2022-12-06T04:33:52.258Z,90.87
2022-12-06T04:36:38.410Z,90.53
2022-12-06T04:39:06.375Z,90.54
2022-12-06T04:41:52.755Z,90.05
2022-12-06T04:44:20.537Z,90.59
2022-12-06T04:46:48.281Z,91.07
2022-12-06T04:49:16.066Z,91.23
2022-12-06T04:51:43.834Z,91.14
2022-12-06T04:54:11.610Z,91.09
2022-12-06T04:56:39.390Z,91.25
2022-12-06T04:59:07.087Z,91.32
2022-12-06T05:01:34.822Z,91.23
2022-12-06T05:04:02.577Z,91.07
2022-12-06T05:06:30.650Z,91.05
2022-12-06T05:08:58.420Z,91.27
2022-12-06T05:11:26.240Z,91.54
2022-12-06T05:13:53.892Z,91.76
2022-12-06T05:16:21.797Z,91.64
2022-12-06T05:18:49.718Z,91.18
2022-12-06T05:21:18.779Z,91.10
2022-12-06T05:23:46.968Z,91.28
2022-12-06T05:26:17.077Z,91.38
2022-12-06T05:28:45.426Z,91.17
2022-12-06T05:31:13.911Z,91.06
2022-12-06T05:33:41.877Z,91.37
2022-12-06T05:36:10.779Z,91.16
2022-12-06T05:38:38.707Z,90.91
2022-12-06T05:41:07.124Z,90.98
2022-12-06T05:43:39.468Z,90.90
2022-12-06T05:46:07.243Z,90.91
2022-12-06T05:48:35.163Z,91.14
2022-12-06T05:51:05.360Z,91.10
2022-12-06T05:53:36.587Z,91.22
2022-12-06T05:56:13.297Z,91.31
2022-12-06T05:58:41.229Z,91.29
2022-12-06T06:01:09.548Z,91.44
2022-12-06T06:03:42.243Z,91.24
2022-12-06T06:06:13.372Z,91.32
2022-12-06T06:08:41.174Z,91.23
2022-12-06T06:11:08.867Z,91.41
2022-12-06T06:13:36.672Z,91.34
2022-12-06T06:16:04.498Z,91.32
2022-12-06T06:18:32.554Z,91.38
2022-12-06T06:21:00.698Z,91.35
2022-12-06T06:23:28.591Z,91.49
2022-12-06T06:25:56.530Z,91.59
2022-12-06T06:28:24.647Z,91.27
2022-12-06T06:30:52.473Z,91.18
2022-12-06T06:33:21.300Z,91.03
2022-12-06T06:35:49.146Z,90.66
2022-12-06T06:38:16.880Z,91.00
2022-12-06T06:40:44.707Z,91.04
2022-12-06T06:43:18.947Z,90.90
2022-12-06T06:45:52.721Z,90.81
2022-12-06T06:48:21.235Z,91.24
2022-12-06T06:50:53.941Z,91.38
2022-12-06T06:53:26.534Z,91.13
2022-12-06T06:55:54.212Z,90.90
2022-12-06T06:58:22.211Z,91.24
2022-12-06T07:00:55.273Z,91.20
2022-12-06T07:03:23.691Z,90.96
2022-12-06T07:05:54.606Z,91.02
2022-12-06T07:08:22.724Z,91.20
2022-12-06T07:10:50.565Z,91.07
2022-12-06T07:13:19.211Z,90.94
2022-12-06T07:15:46.906Z,91.24
2022-12-06T07:18:17.245Z,91.07
2022-12-06T07:20:45.839Z,90.98
2022-12-06T07:23:13.779Z,90.53
2022-12-06T07:25:41.892Z,90.32
2022-12-06T07:28:09.719Z,90.29
2022-12-06T07:30:37.523Z,90.34
2022-12-06T07:33:05.552Z,90.44
2022-12-06T07:36:03.651Z,90.57
2022-12-06T07:38:21.337Z,90.72
2022-12-06T07:41:04.038Z,90.94
2022-12-06T07:43:51.273Z,91.03
2022-12-06T07:46:19.103Z,90.77
2022-12-06T07:48:46.868Z,90.51
2022-12-06T07:51:14.909Z,90.59
2022-12-06T07:53:43.893Z,90.24
2022-12-06T07:56:11.624Z,90.25
2022-12-06T07:58:39.492Z,90.49
2022-12-06T08:01:07.247Z,90.71
2022-12-06T08:03:35.030Z,90.49
2022-12-06T08:06:02.895Z,90.34
2022-12-06T08:08:31.981Z,90.35
2022-12-06T08:11:04.167Z,90.53
2022-12-06T08:13:32.752Z,90.46
2022-12-06T08:16:04.046Z,90.41
2022-12-06T08:18:32.086Z,89.38
2022-12-06T08:20:59.751Z,89.99
2022-12-06T08:23:33.702Z,90.60
2022-12-06T08:26:06.687Z,90.64
2022-12-06T08:28:35.468Z,90.92
2022-12-06T08:31:10.433Z,90.97
2022-12-06T08:33:38.362Z,91.23
2022-12-06T08:36:10.199Z,91.05
2022-12-06T08:38:38.272Z,90.78
2022-12-06T08:41:06.874Z,90.99
2022-12-06T08:43:34.560Z,91.01
2022-12-06T08:46:02.350Z,91.08
2022-12-06T08:48:30.128Z,90.93
2022-12-06T08:51:01.911Z,90.40
2022-12-06T08:53:29.539Z,90.14
2022-12-06T08:56:02.305Z,90.18
2022-12-06T08:58:31.112Z,89.79
2022-12-06T09:00:58.817Z,90.04
2022-12-06T09:03:26.528Z,89.81
2022-12-06T09:05:54.389Z,89.78
2022-12-06T09:08:22.160Z,89.85
2022-12-06T09:10:49.875Z,89.63
2022-12-06T09:13:17.568Z,89.66
2022-12-06T09:15:45.342Z,89.13
2022-12-06T09:18:13.070Z,89.25
2022-12-06T09:20:41.329Z,89.44
2022-12-06T09:23:09.113Z,89.20
2022-12-06T09:25:36.835Z,89.30
2022-12-06T09:28:04.681Z,89.30
2022-12-06T09:30:32.326Z,89.08
2022-12-06T09:33:00.082Z,89.11
2022-12-06T09:35:27.923Z,89.18
2022-12-06T09:37:55.851Z,88.84
2022-12-06T09:40:39.845Z,88.85
2022-12-06T09:43:30.558Z,88.84
2022-12-06T09:45:58.305Z,88.53
2022-12-06T09:48:38.436Z,88.13
2022-12-06T09:51:06.274Z,87.84
2022-12-06T09:53:43.268Z,87.20
2022-12-06T09:56:16.897Z,87.19
2022-12-06T09:59:07.791Z,87.45
2022-12-06T10:01:50.707Z,87.52
2022-12-06T10:04:21.546Z,87.41
2022-12-06T10:07:04.458Z,87.02
2022-12-06T10:09:41.431Z,86.64
2022-12-06T10:12:12.192Z,86.54
2022-12-06T10:14:55.587Z,86.06
2022-12-06T10:17:36.239Z,86.18
2022-12-06T10:20:04.948Z,85.76
2022-12-06T10:22:43.001Z,85.61
2022-12-06T10:25:33.772Z,85.30
2022-12-06T10:28:20.418Z,85.55
2022-12-06T10:30:52.004Z,85.31
2022-12-06T10:33:38.453Z,85.19
2022-12-06T10:36:07.991Z,85.45
2022-12-06T10:38:40.150Z,85.48
2022-12-06T10:41:27.233Z,85.42
2022-12-06T10:44:02.660Z,85.34
2022-12-06T10:46:52.988Z,85.73
2022-12-06T10:49:39.472Z,85.76
2022-12-06T10:52:23.246Z,85.81
2022-12-06T10:54:58.809Z,85.49
2022-12-06T10:57:32.034Z,84.93
2022-12-06T11:00:29.367Z,84.71
2022-12-06T11:03:09.180Z,84.47
2022-12-06T11:05:41.341Z,84.61
2022-12-06T11:08:11.782Z,84.85
2022-12-06T11:10:40.394Z,84.73
2022-12-06T11:13:34.423Z,84.26
2022-12-06T11:16:08.156Z,83.85
2022-12-06T11:18:36.138Z,84.02
2022-12-06T11:21:03.985Z,84.33
2022-12-06T11:23:34.535Z,84.32
2022-12-06T11:26:20.761Z,84.28
2022-12-06T11:28:55.580Z,84.64
2022-12-06T11:31:52.749Z,84.73
2022-12-06T11:34:23.907Z,84.62
2022-12-06T11:36:58.222Z,83.31
2022-12-06T11:39:28.904Z,83.05
2022-12-06T11:41:58.681Z,83.31
2022-12-06T11:44:28.060Z,83.00
2022-12-06T11:46:58.068Z,82.92
2022-12-06T11:49:28.102Z,83.51
2022-12-06T11:51:57.807Z,84.06
2022-12-06T11:54:39.877Z,83.95
2022-12-06T11:57:22.261Z,84.08
2022-12-06T12:00:08.543Z,84.15
2022-12-06T12:02:36.491Z,84.16
2022-12-06T12:05:14.134Z,83.98
2022-12-06T12:07:42.703Z,83.83
2022-12-06T12:10:23.242Z,84.02
2022-12-06T12:13:09.504Z,83.68
2022-12-06T12:15:38.017Z,84.11
2022-12-06T12:18:06.302Z,83.60
2022-12-06T12:20:36.312Z,83.19
2022-12-06T12:23:05.894Z,83.76
2022-12-06T12:25:34.763Z,83.78
2022-12-06T12:28:04.033Z,83.80
2022-12-06T12:30:32.315Z,83.40
2022-12-06T12:33:05.983Z,82.89
2022-12-06T12:35:35.196Z,83.18
2022-12-06T12:38:14.822Z,83.40
2022-12-06T12:40:44.288Z,83.57
2022-12-06T12:43:11.994Z,83.59
2022-12-06T12:45:41.054Z,83.48
2022-12-06T12:48:29.258Z,83.35
2022-12-06T12:50:58.413Z,83.11
2022-12-06T12:53:29.179Z,82.98
2022-12-06T12:56:17.135Z,83.06
2022-12-06T12:58:46.547Z,83.23
2022-12-06T13:01:26.744Z,83.51
2022-12-06T13:04:03.071Z,83.47
2022-12-06T13:06:33.611Z,83.69
2022-12-06T13:09:03.038Z,83.62
2022-12-06T13:11:31.594Z,82.95
2022-12-06T13:14:00.438Z,83.04
2022-12-06T13:16:30.178Z,83.57
2022-12-06T13:18:58.471Z,83.52
2022-12-06T13:21:35.224Z,83.50
2022-12-06T13:24:07.805Z,83.62
2022-12-06T13:26:38.922Z,83.48
2022-12-06T13:29:24.960Z,83.17
2022-12-06T13:31:53.745Z,82.85
2022-12-06T13:34:26.473Z,82.73
2022-12-06T13:36:54.201Z,82.94
2022-12-06T13:39:31.012Z,82.87
2022-12-06T13:42:18.975Z,82.87
2022-12-06T13:44:49.953Z,82.79
2022-12-06T13:47:26.761Z,83.20
2022-12-06T13:50:13.084Z,83.26
2022-12-06T13:52:43.993Z,83.42
2022-12-06T13:55:24.159Z,83.47
2022-12-06T13:57:55.101Z,83.42
2022-12-06T14:00:28.955Z,83.28
2022-12-06T14:02:57.177Z,83.42
2022-12-06T14:05:43.851Z,83.36
2022-12-06T14:08:12.554Z,83.58
2022-12-06T14:10:40.508Z,83.72
2022-12-06T14:13:13.451Z,83.77
2022-12-06T14:15:45.281Z,83.99
2022-12-06T14:18:20.617Z,84.22
2022-12-06T14:20:49.764Z,84.36
2022-12-06T14:23:40.029Z,84.43
2022-12-06T14:26:18.917Z,84.99
2022-12-06T14:28:47.552Z,85.16
2022-12-06T14:31:38.659Z,85.17
2022-12-06T14:34:06.533Z,84.94
2022-12-06T14:36:40.085Z,84.84
2022-12-06T14:39:15.721Z,84.58
2022-12-06T14:42:11.013Z,84.58
2022-12-06T14:44:39.178Z,84.74
2022-12-06T14:47:07.797Z,84.33
2022-12-06T14:49:54.628Z,84.75
2022-12-06T14:52:22.319Z,84.69
2022-12-06T14:54:50.263Z,84.97
2022-12-06T14:57:21.036Z,85.20
2022-12-06T15:02:58.278Z,85.58
2022-12-06T15:05:44.019Z,85.48
2022-12-06T15:08:19.275Z,85.58
2022-12-06T15:11:06.242Z,85.52
2022-12-06T15:13:35.560Z,85.37
2022-12-06T15:16:06.576Z,85.18
2022-12-06T15:18:39.009Z,85.20
2022-12-06T15:21:11.293Z,85.24
2022-12-06T15:23:52.473Z,85.33
2022-12-06T15:26:21.185Z,85.29
2022-12-06T15:28:49.536Z,85.21
2022-12-06T15:31:17.720Z,85.42
2022-12-06T15:33:46.043Z,85.49
2022-12-06T15:36:20.104Z,85.32
2022-12-06T15:38:48.384Z,85.03
2022-12-06T15:41:18.510Z,85.15
2022-12-06T15:43:47.031Z,84.92
2022-12-06T15:46:23.788Z,85.16
2022-12-06T15:48:52.187Z,85.20
2022-12-06T15:51:21.404Z,85.57
2022-12-06T15:53:50.608Z,85.91
2022-12-06T15:56:19.945Z,85.92
2022-12-06T15:58:47.804Z,85.69
2022-12-06T16:01:21.167Z,85.30
2022-12-06T16:03:49.725Z,85.37
2022-12-06T16:06:18.899Z,85.36
2022-12-06T16:08:46.993Z,85.52
2022-12-06T16:11:16.579Z,85.64
2022-12-06T16:13:44.394Z,85.82
2022-12-06T16:16:12.936Z,85.72
2022-12-06T16:18:40.842Z,85.92
2022-12-06T16:21:18.145Z,86.13
2022-12-06T16:24:16.723Z,86.56
2022-12-06T16:26:45.533Z,86.65
2022-12-06T16:29:16.993Z,86.57
2022-12-06T16:31:45.578Z,86.23
2022-12-06T16:34:13.820Z,86.15
2022-12-06T16:36:55.526Z,86.27
2022-12-06T16:39:23.476Z,85.96
2022-12-06T16:41:51.402Z,86.05
2022-12-06T16:44:19.144Z,86.26
2022-12-06T16:46:46.903Z,86.41
2022-12-06T16:49:44.610Z,86.43
2022-12-06T16:52:05.048Z,86.45
2022-12-06T16:54:32.850Z,86.57
2022-12-06T16:57:00.538Z,86.44
2022-12-06T16:59:28.275Z,86.16
2022-12-06T17:01:56.109Z,85.99
2022-12-06T17:04:25.585Z,85.88
2022-12-06T17:06:53.408Z,86.11
2022-12-06T17:09:21.109Z,86.03
2022-12-06T17:12:06.369Z,86.08
2022-12-06T17:14:36.068Z,86.17
2022-12-06T17:17:04.335Z,86.02
2022-12-06T17:19:33.278Z,85.90
2022-12-06T17:22:06.251Z,86.07
2022-12-06T17:24:34.115Z,86.02
2022-12-06T17:27:01.813Z,86.39
2022-12-06T17:29:29.707Z,86.57
2022-12-06T17:31:57.452Z,86.31
2022-12-06T17:34:25.859Z,86.57
2022-12-06T17:36:54.860Z,86.53
2022-12-06T17:39:22.636Z,86.91
2022-12-06T17:42:09.184Z,86.87
2022-12-06T17:44:38.863Z,87.06
2022-12-06T17:47:06.857Z,87.19
2022-12-06T17:49:36.218Z,86.83
2022-12-06T17:52:04.599Z,86.78
2022-12-06T17:54:32.353Z,87.04
2022-12-06T17:57:00.191Z,87.03
2022-12-06T17:59:30.321Z,87.38
2022-12-06T18:02:17.917Z,87.02
2022-12-06T18:04:47.655Z,86.97
2022-12-06T18:07:16.941Z,87.56
2022-12-06T18:09:45.393Z,87.66
2022-12-06T18:12:14.063Z,87.71
2022-12-06T18:14:41.946Z,87.82
2022-12-06T18:17:09.721Z,87.81
2022-12-06T18:19:37.810Z,87.54
2022-12-06T18:22:05.660Z,87.65
2022-12-06T18:24:36.233Z,88.04
2022-12-06T18:27:05.297Z,87.95
2022-12-06T18:29:33.255Z,87.65
2022-12-06T18:32:01.089Z,87.92
2022-12-06T18:34:29.245Z,87.89
2022-12-06T18:36:56.984Z,87.99
2022-12-06T18:39:25.003Z,88.27
2022-12-06T18:41:53.438Z,88.40
2022-12-06T18:44:21.508Z,88.40
2022-12-06T18:46:49.561Z,88.25
2022-12-06T18:49:17.419Z,88.31
2022-12-06T18:51:45.254Z,88.49
2022-12-06T18:54:14.163Z,88.47
2022-12-06T18:56:42.571Z,88.27
2022-12-06T18:59:11.755Z,88.20
2022-12-06T19:01:40.608Z,88.01
2022-12-06T19:04:09.595Z,88.04
2022-12-06T19:06:37.958Z,87.67
2022-12-06T19:09:10.275Z,87.65
2022-12-06T19:11:39.083Z,87.58
2022-12-06T19:14:07.127Z,87.69
2022-12-06T19:16:34.949Z,87.82
2022-12-06T19:19:03.793Z,88.24
2022-12-06T19:21:33.074Z,88.20
2022-12-06T19:24:01.528Z,88.33
2022-12-06T19:26:29.362Z,88.27
2022-12-06T19:28:57.330Z,88.32
2022-12-06T19:31:25.275Z,88.22
2022-12-06T19:33:52.997Z,87.94
2022-12-06T19:36:24.774Z,88.19
2022-12-06T19:38:56.576Z,88.24
2022-12-06T19:41:24.565Z,88.06
2022-12-06T19:44:11.022Z,88.37
2022-12-06T19:46:41.212Z,88.10
2022-12-06T19:49:10.448Z,88.19
2022-12-06T19:51:39.497Z,87.90
2022-12-06T19:54:08.061Z,88.12
2022-12-06T19:56:36.341Z,88.03
2022-12-06T19:59:11.625Z,88.08
2022-12-06T20:01:41.146Z,87.99
2022-12-06T20:04:09.087Z,87.78
2022-12-06T20:06:37.141Z,88.00
2022-12-06T20:09:05.030Z,87.93
2022-12-06T20:11:54.599Z,87.75
2022-12-06T20:14:23.078Z,87.77
2022-12-06T20:16:51.574Z,87.64
2022-12-06T20:19:20.339Z,87.73
2022-12-06T20:21:48.897Z,87.35
2022-12-06T20:24:18.919Z,87.47
2022-12-06T20:26:49.402Z,87.68
2022-12-06T20:29:20.411Z,87.73
2022-12-06T20:31:49.971Z,87.70
2022-12-06T20:34:17.725Z,87.89
2022-12-06T20:36:45.701Z,87.77
2022-12-06T20:39:21.542Z,87.87
2022-12-06T20:41:49.841Z,87.73
2022-12-06T20:44:18.301Z,88.01
2022-12-06T20:46:47.886Z,87.88
2022-12-06T20:49:22.532Z,88.01
2022-12-06T20:51:53.261Z,88.15
2022-12-06T20:54:21.851Z,87.91
2022-12-06T20:56:52.048Z,88.00
2022-12-06T20:59:20.416Z,88.11
2022-12-06T21:01:48.494Z,87.83
2022-12-06T21:04:18.294Z,87.57
2022-12-06T21:06:47.254Z,87.91
2022-12-06T21:09:15.071Z,88.33
2022-12-06T21:11:42.921Z,88.47
2022-12-06T21:14:12.087Z,88.66
2022-12-06T21:16:41.408Z,88.58
2022-12-06T21:19:17.643Z,88.81
2022-12-06T21:21:47.459Z,88.93
2022-12-06T21:24:16.771Z,88.89
2022-12-06T21:26:44.628Z,88.64
2022-12-06T21:29:14.481Z,88.97
2022-12-06T21:31:42.639Z,89.33
2022-12-06T21:34:11.757Z,89.31
2022-12-06T21:36:39.729Z,89.40
2022-12-06T21:39:07.797Z,89.08
2022-12-06T21:41:35.495Z,89.15
2022-12-06T21:44:03.205Z,88.77
2022-12-06T21:46:31.065Z,88.69
2022-12-06T21:48:59.713Z,89.21
2022-12-06T21:51:29.431Z,88.64
2022-12-06T21:53:57.372Z,88.56
2022-12-06T21:56:26.491Z,88.93
2022-12-06T21:58:54.521Z,89.03
2022-12-06T22:01:28.304Z,89.03
2022-12-06T22:03:57.968Z,89.20
2022-12-06T22:06:26.417Z,88.98
2022-12-06T22:08:59.309Z,88.93
2022-12-06T22:11:27.203Z,89.18
2022-12-06T22:13:56.588Z,89.28
2022-12-06T22:16:24.680Z,89.16
2022-12-06T22:18:55.089Z,89.21
2022-12-06T22:21:26.826Z,89.36
2022-12-06T22:23:55.416Z,89.42
2022-12-06T22:26:23.348Z,88.92
2022-12-06T22:28:51.307Z,88.48
2022-12-06T22:31:21.099Z,88.86
2022-12-06T22:33:49.245Z,89.18
2022-12-06T22:36:17.716Z,89.09
2022-12-06T22:38:48.563Z,89.11
2022-12-06T22:41:16.481Z,89.31
2022-12-06T22:43:44.549Z,89.31
2022-12-06T22:46:13.714Z,89.68
2022-12-06T22:48:42.608Z,89.82
2022-12-06T22:51:17.781Z,89.51
2022-12-06T22:53:46.850Z,89.42
2022-12-06T22:56:15.056Z,89.46
2022-12-06T22:58:42.769Z,89.43
2022-12-06T23:01:16.257Z,89.22
2022-12-06T23:03:45.532Z,88.99
2022-12-06T23:06:14.343Z,88.96
2022-12-06T23:08:42.460Z,89.21
2022-12-06T23:11:11.721Z,89.31
2022-12-06T23:13:40.187Z,89.48
2022-12-06T23:16:10.351Z,89.36
2022-12-06T23:18:38.141Z,89.28
2022-12-06T23:21:05.941Z,89.39
2022-12-06T23:23:33.996Z,89.49
2022-12-06T23:26:02.962Z,89.62
2022-12-06T23:28:31.225Z,89.70
2022-12-06T23:31:03.518Z,89.78
2022-12-06T23:33:31.723Z,89.85
2022-12-06T23:36:10.570Z,89.85
2022-12-06T23:38:38.799Z,90.01
2022-12-06T23:41:08.128Z,90.26
2022-12-06T23:43:36.756Z,90.29
2022-12-06T23:46:07.707Z,90.65
2022-12-06T23:48:36.335Z,90.98
2022-12-06T23:51:05.373Z,90.78
2022-12-06T23:53:36.919Z,90.71
2022-12-06T23:56:06.792Z,90.85
2022-12-06T23:58:35.172Z,90.76
